sensor_id;sensor_type;location;lat;lon;timestamp;P1;durP1;ratioP1;P2;durP2;ratioP2
6467;SDS011;3267;48.794;9.928;2023-03-01T05:01:35;12.97;;;9.47;;
6467;SDS011;3267;48.794;9.928;2023-03-01T05:04:02;12.63;;;9.63;;
6467;SDS011;3267;48.794;9.928;2023-03-01T05:06:30;11.43;;;9.50;;
6467;SDS011;3267;48.794;9.928;2023-03-01T05:08:56;13.30;;;10.07;;
6467;SDS011;3267;48.794;9.928;2023-03-01T05:11:22;14.43;;;9.70;;
6467;SDS011;3267;48.794;9.928;2023-03-01T05:13:49;10.20;;;8.53;;
6467;SDS011;3267;48.794;9.928;2023-03-01T05:16:19;14.33;;;10.03;;
6467;SDS011;3267;48.794;9.928;2023-03-01T05:18:45;16.00;;;10.30;;
6467;SDS011;3267;48.794;9.928;2023-03-01T05:21:12;12.83;;;10.23;;
6467;SDS011;3267;48.794;9.928;2023-03-01T05:23:40;14.83;;;10.23;;
6467;SDS011;3267;48.794;9.928;2023-03-01T05:26:07;13.93;;;10.73;;
6467;SDS011;3267;48.794;9.928;2023-03-01T05:28:33;13.03;;;9.93;;
6467;SDS011;3267;48.794;9.928;2023-03-01T05:31:00;15.20;;;10.93;;
6467;SDS011;3267;48.794;9.928;2023-03-01T05:33:26;15.07;;;10.37;;
6467;SDS011;3267;48.794;9.928;2023-03-01T05:35:52;14.70;;;10.20;;
6467;SDS011;3267;48.794;9.928;2023-03-01T05:38:19;13.73;;;10.30;;
6467;SDS011;3267;48.794;9.928;2023-03-01T05:40:46;13.30;;;10.10;;
6467;SDS011;3267;48.794;9.928;2023-03-01T05:43:13;16.07;;;10.17;;
6467;SDS011;3267;48.794;9.928;2023-03-01T05:45:39;13.90;;;9.90;;
6467;SDS011;3267;48.794;9.928;2023-03-01T05:48:06;15.53;;;11.77;;
6467;SDS011;3267;48.794;9.928;2023-03-01T05:50:33;17.53;;;12.10;;
6467;SDS011;3267;48.794;9.928;2023-03-01T05:53:00;14.57;;;10.17;;
6467;SDS011;3267;48.794;9.928;2023-03-01T05:55:27;14.07;;;10.27;;
6467;SDS011;3267;48.794;9.928;2023-03-01T05:57:53;16.13;;;10.50;;
6467;SDS011;3267;48.794;9.928;2023-03-01T06:00:21;12.93;;;9.83;;
6467;SDS011;3267;48.794;9.928;2023-03-01T06:02:47;12.80;;;9.13;;
6467;SDS011;3267;48.794;9.928;2023-03-01T06:05:14;14.00;;;10.27;;
6467;SDS011;3267;48.794;9.928;2023-03-01T06:07:40;14.10;;;10.07;;
6467;SDS011;3267;48.794;9.928;2023-03-01T06:10:07;14.37;;;10.50;;
6467;SDS011;3267;48.794;9.928;2023-03-01T06:12:34;14.30;;;11.63;;
6467;SDS011;3267;48.794;9.928;2023-03-01T06:15:01;15.97;;;10.63;;
6467;SDS011;3267;48.794;9.928;2023-03-01T06:17:30;15.63;;;10.43;;
6467;SDS011;3267;48.794;9.928;2023-03-01T06:19:57;15.40;;;10.30;;
6467;SDS011;3267;48.794;9.928;2023-03-01T06:22:23;14.20;;;10.27;;
6467;SDS011;3267;48.794;9.928;2023-03-01T06:24:49;19.87;;;10.27;;
6467;SDS011;3267;48.794;9.928;2023-03-01T06:27:15;14.90;;;9.67;;
6467;SDS011;3267;48.794;9.928;2023-03-01T06:29:41;12.43;;;10.10;;
6467;SDS011;3267;48.794;9.928;2023-03-01T06:32:07;13.13;;;10.10;;
6467;SDS011;3267;48.794;9.928;2023-03-01T06:34:33;12.03;;;9.60;;
6467;SDS011;3267;48.794;9.928;2023-03-01T06:36:59;13.87;;;10.33;;
6467;SDS011;3267;48.794;9.928;2023-03-01T06:39:27;12.50;;;10.50;;
6467;SDS011;3267;48.794;9.928;2023-03-01T06:41:53;13.03;;;10.17;;
6467;SDS011;3267;48.794;9.928;2023-03-01T06:44:20;13.70;;;9.53;;
6467;SDS011;3267;48.794;9.928;2023-03-01T06:46:45;13.67;;;10.50;;
6467;SDS011;3267;48.794;9.928;2023-03-01T06:49:11;14.80;;;11.20;;
6467;SDS011;3267;48.794;9.928;2023-03-01T06:51:40;13.80;;;10.17;;
6467;SDS011;3267;48.794;9.928;2023-03-01T06:54:07;16.73;;;11.50;;
6467;SDS011;3267;48.794;9.928;2023-03-01T06:56:33;17.47;;;11.40;;
6467;SDS011;3267;48.794;9.928;2023-03-01T06:58:59;17.80;;;12.53;;
6467;SDS011;3267;48.794;9.928;2023-03-01T07:01:25;18.70;;;13.07;;
6467;SDS011;3267;48.794;9.928;2023-03-01T07:03:51;16.93;;;11.83;;
6467;SDS011;3267;48.794;9.928;2023-03-01T07:06:17;16.00;;;11.83;;
6467;SDS011;3267;48.794;9.928;2023-03-01T07:08:43;16.23;;;10.43;;
6467;SDS011;3267;48.794;9.928;2023-03-01T07:11:09;19.47;;;11.40;;
6467;SDS011;3267;48.794;9.928;2023-03-01T07:13:35;16.30;;;12.13;;
6467;SDS011;3267;48.794;9.928;2023-03-01T07:16:01;18.87;;;12.47;;
6467;SDS011;3267;48.794;9.928;2023-03-01T07:18:27;22.80;;;14.63;;
6467;SDS011;3267;48.794;9.928;2023-03-01T07:20:53;29.37;;;15.97;;
6467;SDS011;3267;48.794;9.928;2023-03-01T07:23:19;38.37;;;18.60;;
6467;SDS011;3267;48.794;9.928;2023-03-01T07:25:50;66.87;;;26.50;;
6467;SDS011;3267;48.794;9.928;2023-03-01T07:28:16;18.40;;;13.43;;
6467;SDS011;3267;48.794;9.928;2023-03-01T07:30:45;38.00;;;18.80;;
6467;SDS011;3267;48.794;9.928;2023-03-01T07:33:11;34.33;;;18.30;;
6467;SDS011;3267;48.794;9.928;2023-03-01T07:35:37;18.43;;;11.83;;
6467;SDS011;3267;48.794;9.928;2023-03-01T07:38:03;15.23;;;11.00;;
6467;SDS011;3267;48.794;9.928;2023-03-01T07:40:33;14.40;;;11.10;;
6467;SDS011;3267;48.794;9.928;2023-03-01T07:42:59;16.57;;;11.60;;
6467;SDS011;3267;48.794;9.928;2023-03-01T07:45:26;15.33;;;10.83;;
6467;SDS011;3267;48.794;9.928;2023-03-01T07:47:52;19.47;;;12.73;;
6467;SDS011;3267;48.794;9.928;2023-03-01T07:50:22;22.17;;;13.43;;
6467;SDS011;3267;48.794;9.928;2023-03-01T07:52:48;14.27;;;9.47;;
6467;SDS011;3267;48.794;9.928;2023-03-01T07:55:15;15.90;;;11.53;;
6467;SDS011;3267;48.794;9.928;2023-03-01T07:57:41;17.17;;;10.50;;
6467;SDS011;3267;48.794;9.928;2023-03-01T08:00:07;18.17;;;11.73;;
6467;SDS011;3267;48.794;9.928;2023-03-01T08:02:33;19.70;;;12.10;;
6467;SDS011;3267;48.794;9.928;2023-03-01T08:05:02;16.47;;;11.03;;
6467;SDS011;3267;48.794;9.928;2023-03-01T08:07:28;17.33;;;12.17;;
6467;SDS011;3267;48.794;9.928;2023-03-01T08:09:54;16.83;;;12.00;;
6467;SDS011;3267;48.794;9.928;2023-03-01T08:12:21;15.47;;;10.93;;
6467;SDS011;3267;48.794;9.928;2023-03-01T08:14:47;22.10;;;13.53;;
6467;SDS011;3267;48.794;9.928;2023-03-01T08:17:13;19.03;;;12.50;;
6467;SDS011;3267;48.794;9.928;2023-03-01T08:19:39;19.90;;;11.70;;
6467;SDS011;3267;48.794;9.928;2023-03-01T08:22:05;16.37;;;11.30;;
6467;SDS011;3267;48.794;9.928;2023-03-01T08:24:31;16.10;;;11.50;;
6467;SDS011;3267;48.794;9.928;2023-03-01T08:26:57;16.17;;;11.47;;
6467;SDS011;3267;48.794;9.928;2023-03-01T08:29:23;16.83;;;11.17;;
6467;SDS011;3267;48.794;9.928;2023-03-01T08:31:50;18.13;;;11.83;;
6467;SDS011;3267;48.794;9.928;2023-03-01T08:34:17;18.73;;;12.10;;
6467;SDS011;3267;48.794;9.928;2023-03-01T08:36:44;18.57;;;12.53;;
6467;SDS011;3267;48.794;9.928;2023-03-01T08:39:14;17.47;;;10.23;;
6467;SDS011;3267;48.794;9.928;2023-03-01T08:41:41;16.50;;;12.00;;
6467;SDS011;3267;48.794;9.928;2023-03-01T08:44:07;16.17;;;9.73;;
6467;SDS011;3267;48.794;9.928;2023-03-01T08:46:41;19.93;;;10.90;;
6467;SDS011;3267;48.794;9.928;2023-03-01T08:49:08;21.63;;;12.07;;
6467;SDS011;3267;48.794;9.928;2023-03-01T08:51:34;16.10;;;11.53;;
6467;SDS011;3267;48.794;9.928;2023-03-01T08:54:04;19.27;;;11.13;;
6467;SDS011;3267;48.794;9.928;2023-03-01T08:56:36;14.97;;;10.77;;
6467;SDS011;3267;48.794;9.928;2023-03-01T08:59:02;18.33;;;11.63;;
6467;SDS011;3267;48.794;9.928;2023-03-01T09:01:29;14.23;;;10.40;;
6467;SDS011;3267;48.794;9.928;2023-03-01T09:03:55;14.83;;;11.07;;
6467;SDS011;3267;48.794;9.928;2023-03-01T09:06:21;13.20;;;10.97;;
6467;SDS011;3267;48.794;9.928;2023-03-01T09:08:47;14.27;;;10.77;;
6467;SDS011;3267;48.794;9.928;2023-03-01T09:11:15;15.60;;;10.40;;
6467;SDS011;3267;48.794;9.928;2023-03-01T09:13:42;14.67;;;10.70;;
6467;SDS011;3267;48.794;9.928;2023-03-01T09:16:08;14.27;;;11.90;;
6467;SDS011;3267;48.794;9.928;2023-03-01T09:18:34;14.37;;;11.60;;
6467;SDS011;3267;48.794;9.928;2023-03-01T09:21:07;14.77;;;12.17;;
6467;SDS011;3267;48.794;9.928;2023-03-01T09:23:35;15.53;;;10.57;;
6467;SDS011;3267;48.794;9.928;2023-03-01T09:26:04;16.60;;;12.17;;
6467;SDS011;3267;48.794;9.928;2023-03-01T09:28:30;18.50;;;14.17;;
6467;SDS011;3267;48.794;9.928;2023-03-01T09:30:59;14.17;;;11.20;;
6467;SDS011;3267;48.794;9.928;2023-03-01T09:33:27;12.83;;;10.67;;
6467;SDS011;3267;48.794;9.928;2023-03-01T09:36:00;18.73;;;11.03;;
6467;SDS011;3267;48.794;9.928;2023-03-01T09:38:28;14.93;;;11.17;;
6467;SDS011;3267;48.794;9.928;2023-03-01T09:40:54;15.27;;;9.67;;
6467;SDS011;3267;48.794;9.928;2023-03-01T09:46:23;14.83;;;10.60;;
6467;SDS011;3267;48.794;9.928;2023-03-01T09:48:51;15.07;;;11.13;;
6467;SDS011;3267;48.794;9.928;2023-03-01T09:51:30;16.83;;;10.93;;
6467;SDS011;3267;48.794;9.928;2023-03-01T09:54:04;14.80;;;10.83;;
6467;SDS011;3267;48.794;9.928;2023-03-01T09:56:41;14.87;;;11.13;;
6467;SDS011;3267;48.794;9.928;2023-03-01T09:59:34;13.90;;;10.73;;
6467;SDS011;3267;48.794;9.928;2023-03-01T10:02:40;14.20;;;10.40;;
6467;SDS011;3267;48.794;9.928;2023-03-01T10:10:32;14.60;;;11.17;;
6467;SDS011;3267;48.794;9.928;2023-03-01T10:13:18;12.93;;;10.63;;
6467;SDS011;3267;48.794;9.928;2023-03-01T10:16:11;13.10;;;10.77;;
6467;SDS011;3267;48.794;9.928;2023-03-01T10:18:39;15.20;;;10.87;;
6467;SDS011;3267;48.794;9.928;2023-03-01T10:21:16;13.37;;;10.50;;
6467;SDS011;3267;48.794;9.928;2023-03-01T10:23:44;12.97;;;10.47;;
6467;SDS011;3267;48.794;9.928;2023-03-01T10:29:03;13.05;;;11.27;;
6467;SDS011;3267;48.794;9.928;2023-03-01T10:31:47;12.13;;;10.38;;
6467;SDS011;3267;48.794;9.928;2023-03-01T10:36:42;16.48;;;11.55;;
6467;SDS011;3267;48.794;9.928;2023-03-01T10:39:11;14.73;;;11.15;;
6467;SDS011;3267;48.794;9.928;2023-03-01T10:41:58;13.88;;;10.98;;
6467;SDS011;3267;48.794;9.928;2023-03-01T10:44:42;13.63;;;11.18;;
6467;SDS011;3267;48.794;9.928;2023-03-01T10:47:27;15.55;;;10.57;;
6467;SDS011;3267;48.794;9.928;2023-03-01T10:52:27;13.98;;;10.38;;
6467;SDS011;3267;48.794;9.928;2023-03-01T10:57:34;12.35;;;10.60;;
6467;SDS011;3267;48.794;9.928;2023-03-01T11:03:01;15.38;;;11.05;;
6467;SDS011;3267;48.794;9.928;2023-03-01T11:05:28;14.07;;;10.35;;
6467;SDS011;3267;48.794;9.928;2023-03-01T11:07:56;12.68;;;10.27;;
6467;SDS011;3267;48.794;9.928;2023-03-01T11:10:25;15.77;;;12.38;;
6467;SDS011;3267;48.794;9.928;2023-03-01T11:15:38;22.05;;;17.70;;
6467;SDS011;3267;48.794;9.928;2023-03-01T11:18:04;26.80;;;19.65;;
6467;SDS011;3267;48.794;9.928;2023-03-01T11:20:35;18.30;;;11.73;;
6467;SDS011;3267;48.794;9.928;2023-03-01T11:23:03;21.10;;;11.60;;
6467;SDS011;3267;48.794;9.928;2023-03-01T11:25:35;16.58;;;10.65;;
6467;SDS011;3267;48.794;9.928;2023-03-01T11:28:04;14.23;;;10.18;;
6467;SDS011;3267;48.794;9.928;2023-03-01T11:35:35;11.57;;;9.23;;
6467;SDS011;3267;48.794;9.928;2023-03-01T11:40:43;12.55;;;9.23;;
6467;SDS011;3267;48.794;9.928;2023-03-01T11:48:30;13.63;;;9.63;;
6467;SDS011;3267;48.794;9.928;2023-03-01T11:51:01;11.10;;;8.43;;
6467;SDS011;3267;48.794;9.928;2023-03-01T11:58:58;11.23;;;8.70;;
6467;SDS011;3267;48.794;9.928;2023-03-01T12:06:46;10.07;;;8.00;;
6467;SDS011;3267;48.794;9.928;2023-03-01T12:09:28;11.48;;;8.05;;
6467;SDS011;3267;48.794;9.928;2023-03-01T12:12:04;10.05;;;8.07;;
6467;SDS011;3267;48.794;9.928;2023-03-01T12:15:01;11.38;;;8.48;;
6467;SDS011;3267;48.794;9.928;2023-03-01T12:20:40;9.23;;;8.13;;
6467;SDS011;3267;48.794;9.928;2023-03-01T12:23:17;12.57;;;8.93;;
6467;SDS011;3267;48.794;9.928;2023-03-01T12:26:26;10.77;;;8.00;;
6467;SDS011;3267;48.794;9.928;2023-03-01T12:29:09;9.77;;;8.27;;
6467;SDS011;3267;48.794;9.928;2023-03-01T12:31:56;11.38;;;8.70;;
6467;SDS011;3267;48.794;9.928;2023-03-01T12:34:29;11.25;;;9.63;;
6467;SDS011;3267;48.794;9.928;2023-03-01T12:42:55;13.98;;;9.93;;
6467;SDS011;3267;48.794;9.928;2023-03-01T12:45:32;14.18;;;11.13;;
6467;SDS011;3267;48.794;9.928;2023-03-01T12:48:15;12.57;;;10.02;;
6467;SDS011;3267;48.794;9.928;2023-03-01T12:50:46;12.63;;;10.40;;
6467;SDS011;3267;48.794;9.928;2023-03-01T12:53:25;13.95;;;11.07;;
6467;SDS011;3267;48.794;9.928;2023-03-01T12:55:59;11.70;;;10.10;;
6467;SDS011;3267;48.794;9.928;2023-03-01T13:01:18;14.20;;;9.82;;
6467;SDS011;3267;48.794;9.928;2023-03-01T13:03:59;17.67;;;11.15;;
6467;SDS011;3267;48.794;9.928;2023-03-01T13:11:41;13.55;;;10.00;;
6467;SDS011;3267;48.794;9.928;2023-03-01T13:16:47;19.20;;;15.10;;
6467;SDS011;3267;48.794;9.928;2023-03-01T13:21:44;12.25;;;10.85;;
6467;SDS011;3267;48.794;9.928;2023-03-01T13:24:27;13.93;;;10.90;;
6467;SDS011;3267;48.794;9.928;2023-03-01T13:29:43;16.60;;;10.90;;
6467;SDS011;3267;48.794;9.928;2023-03-01T13:32:18;11.32;;;10.20;;
6467;SDS011;3267;48.794;9.928;2023-03-01T13:37:35;13.13;;;10.73;;
6467;SDS011;3267;48.794;9.928;2023-03-01T13:42:51;11.77;;;9.90;;
6467;SDS011;3267;48.794;9.928;2023-03-01T13:47:49;13.05;;;9.77;;
6467;SDS011;3267;48.794;9.928;2023-03-01T13:50:20;12.10;;;9.75;;
6467;SDS011;3267;48.794;9.928;2023-03-01T13:52:56;15.55;;;10.75;;
6467;SDS011;3267;48.794;9.928;2023-03-01T13:55:36;15.00;;;10.13;;
6467;SDS011;3267;48.794;9.928;2023-03-01T13:58:15;11.27;;;9.45;;
6467;SDS011;3267;48.794;9.928;2023-03-01T14:00:42;13.85;;;11.23;;
6467;SDS011;3267;48.794;9.928;2023-03-01T14:03:12;11.07;;;9.65;;
6467;SDS011;3267;48.794;9.928;2023-03-01T14:05:44;13.18;;;10.85;;
6467;SDS011;3267;48.794;9.928;2023-03-01T14:08:26;11.75;;;9.85;;
6467;SDS011;3267;48.794;9.928;2023-03-01T14:13:31;10.50;;;9.15;;
6467;SDS011;3267;48.794;9.928;2023-03-01T14:16:04;15.20;;;10.25;;
6467;SDS011;3267;48.794;9.928;2023-03-01T14:18:58;10.70;;;9.50;;
6467;SDS011;3267;48.794;9.928;2023-03-01T14:21:27;14.43;;;9.52;;
6467;SDS011;3267;48.794;9.928;2023-03-01T14:23:53;10.90;;;9.68;;
6467;SDS011;3267;48.794;9.928;2023-03-01T14:26:22;12.45;;;9.70;;
6467;SDS011;3267;48.794;9.928;2023-03-01T14:28:49;13.10;;;9.93;;
6467;SDS011;3267;48.794;9.928;2023-03-01T14:34:01;11.13;;;9.07;;
6467;SDS011;3267;48.794;9.928;2023-03-01T14:36:28;12.80;;;8.90;;
6467;SDS011;3267;48.794;9.928;2023-03-01T14:38:55;11.00;;;9.77;;
6467;SDS011;3267;48.794;9.928;2023-03-01T14:41:24;11.68;;;9.40;;
6467;SDS011;3267;48.794;9.928;2023-03-01T14:43:55;10.55;;;9.30;;
6467;SDS011;3267;48.794;9.928;2023-03-01T14:46:38;10.73;;;9.65;;
6467;SDS011;3267;48.794;9.928;2023-03-01T14:51:36;10.50;;;9.00;;
6467;SDS011;3267;48.794;9.928;2023-03-01T14:54:03;12.00;;;8.85;;
6467;SDS011;3267;48.794;9.928;2023-03-01T14:56:45;11.75;;;9.40;;
6467;SDS011;3267;48.794;9.928;2023-03-01T14:59:12;13.15;;;8.75;;
6467;SDS011;3267;48.794;9.928;2023-03-01T15:01:39;11.15;;;9.23;;
6467;SDS011;3267;48.794;9.928;2023-03-01T15:04:06;10.10;;;9.02;;
6467;SDS011;3267;48.794;9.928;2023-03-01T15:06:36;11.68;;;9.30;;
6467;SDS011;3267;48.794;9.928;2023-03-01T15:09:03;11.65;;;8.32;;
6467;SDS011;3267;48.794;9.928;2023-03-01T15:11:30;10.40;;;8.18;;
6467;SDS011;3267;48.794;9.928;2023-03-01T15:13:57;9.07;;;5.85;;
6467;SDS011;3267;48.794;9.928;2023-03-01T15:16:30;10.32;;;8.45;;
6467;SDS011;3267;48.794;9.928;2023-03-01T15:18:59;13.02;;;9.27;;
6467;SDS011;3267;48.794;9.928;2023-03-01T15:21:27;16.10;;;11.40;;
6467;SDS011;3267;48.794;9.928;2023-03-01T15:26:45;28.00;;;19.95;;
6467;SDS011;3267;48.794;9.928;2023-03-01T15:29:18;20.40;;;14.30;;
6467;SDS011;3267;48.794;9.928;2023-03-01T15:31:57;34.75;;;23.60;;
6467;SDS011;3267;48.794;9.928;2023-03-01T15:34:27;12.27;;;9.52;;
6467;SDS011;3267;48.794;9.928;2023-03-01T15:36:56;15.18;;;9.82;;
6467;SDS011;3267;48.794;9.928;2023-03-01T15:39:31;13.80;;;9.75;;
6467;SDS011;3267;48.794;9.928;2023-03-01T15:42:10;11.70;;;8.75;;
6467;SDS011;3267;48.794;9.928;2023-03-01T15:45:06;11.48;;;9.25;;
6467;SDS011;3267;48.794;9.928;2023-03-01T15:47:33;11.55;;;8.82;;
6467;SDS011;3267;48.794;9.928;2023-03-01T15:50:00;11.57;;;9.30;;
6467;SDS011;3267;48.794;9.928;2023-03-01T15:52:39;10.82;;;9.65;;
6467;SDS011;3267;48.794;9.928;2023-03-01T15:57:48;12.57;;;9.40;;
6467;SDS011;3267;48.794;9.928;2023-03-01T16:00:15;10.93;;;8.68;;
6467;SDS011;3267;48.794;9.928;2023-03-01T16:02:43;12.93;;;8.93;;
6467;SDS011;3267;48.794;9.928;2023-03-01T16:05:15;11.73;;;8.77;;
6467;SDS011;3267;48.794;9.928;2023-03-01T16:07:48;11.98;;;9.73;;
6467;SDS011;3267;48.794;9.928;2023-03-01T16:10:15;12.23;;;9.27;;
6467;SDS011;3267;48.794;9.928;2023-03-01T16:12:41;14.48;;;10.85;;
6467;SDS011;3267;48.794;9.928;2023-03-01T16:15:17;11.25;;;10.05;;
6467;SDS011;3267;48.794;9.928;2023-03-01T16:17:47;13.57;;;9.43;;
6467;SDS011;3267;48.794;9.928;2023-03-01T16:20:13;10.80;;;8.85;;
6467;SDS011;3267;48.794;9.928;2023-03-01T16:22:42;11.40;;;9.48;;
6467;SDS011;3267;48.794;9.928;2023-03-01T16:25:12;13.05;;;10.25;;
6467;SDS011;3267;48.794;9.928;2023-03-01T16:27:43;12.18;;;10.13;;
6467;SDS011;3267;48.794;9.928;2023-03-01T16:30:10;11.93;;;9.77;;
6467;SDS011;3267;48.794;9.928;2023-03-01T16:32:37;12.32;;;9.73;;
6467;SDS011;3267;48.794;9.928;2023-03-01T16:35:04;12.23;;;9.40;;
6467;SDS011;3267;48.794;9.928;2023-03-01T16:37:32;12.63;;;9.60;;
6467;SDS011;3267;48.794;9.928;2023-03-01T16:39:58;12.25;;;10.40;;
6467;SDS011;3267;48.794;9.928;2023-03-01T16:42:24;15.00;;;10.57;;
6467;SDS011;3267;48.794;9.928;2023-03-01T16:44:56;24.05;;;14.70;;
6467;SDS011;3267;48.794;9.928;2023-03-01T16:47:22;14.55;;;10.60;;
6467;SDS011;3267;48.794;9.928;2023-03-01T16:49:51;14.70;;;10.02;;
6467;SDS011;3267;48.794;9.928;2023-03-01T16:52:17;14.07;;;10.40;;
6467;SDS011;3267;48.794;9.928;2023-03-01T16:54:43;13.98;;;11.43;;
6467;SDS011;3267;48.794;9.928;2023-03-01T16:57:09;13.38;;;10.48;;
6467;SDS011;3267;48.794;9.928;2023-03-01T16:59:34;14.82;;;10.73;;
6467;SDS011;3267;48.794;9.928;2023-03-01T17:02:01;18.67;;;14.05;;
6467;SDS011;3267;48.794;9.928;2023-03-01T17:04:27;24.38;;;14.15;;
6467;SDS011;3267;48.794;9.928;2023-03-01T17:06:52;25.55;;;14.68;;
6467;SDS011;3267;48.794;9.928;2023-03-01T17:09:18;19.00;;;12.77;;
6467;SDS011;3267;48.794;9.928;2023-03-01T17:11:47;14.35;;;10.77;;
6467;SDS011;3267;48.794;9.928;2023-03-01T17:14:15;14.07;;;10.35;;
6467;SDS011;3267;48.794;9.928;2023-03-01T17:16:42;14.20;;;10.88;;
6467;SDS011;3267;48.794;9.928;2023-03-01T17:19:08;13.25;;;9.93;;
6467;SDS011;3267;48.794;9.928;2023-03-01T17:21:34;12.02;;;10.25;;
6467;SDS011;3267;48.794;9.928;2023-03-01T17:24:00;12.68;;;11.05;;
6467;SDS011;3267;48.794;9.928;2023-03-01T17:26:28;14.45;;;10.25;;
6467;SDS011;3267;48.794;9.928;2023-03-01T17:28:55;13.32;;;9.85;;
6467;SDS011;3267;48.794;9.928;2023-03-01T17:31:21;13.50;;;9.90;;
6467;SDS011;3267;48.794;9.928;2023-03-01T17:33:48;16.00;;;10.65;;
6467;SDS011;3267;48.794;9.928;2023-03-01T17:36:14;21.35;;;11.40;;
6467;SDS011;3267;48.794;9.928;2023-03-01T17:38:40;18.23;;;10.70;;
6467;SDS011;3267;48.794;9.928;2023-03-01T17:41:06;13.05;;;10.27;;
6467;SDS011;3267;48.794;9.928;2023-03-01T17:43:32;12.90;;;10.23;;
6467;SDS011;3267;48.794;9.928;2023-03-01T17:46:01;14.07;;;10.52;;
6467;SDS011;3267;48.794;9.928;2023-03-01T17:48:26;11.40;;;9.70;;
6467;SDS011;3267;48.794;9.928;2023-03-01T17:50:52;15.52;;;11.18;;
6467;SDS011;3267;48.794;9.928;2023-03-01T17:53:18;16.52;;;11.73;;
6467;SDS011;3267;48.794;9.928;2023-03-01T17:55:43;18.80;;;15.57;;
6467;SDS011;3267;48.794;9.928;2023-03-01T17:58:12;26.40;;;17.13;;
6467;SDS011;3267;48.794;9.928;2023-03-01T18:00:38;17.25;;;12.00;;
6467;SDS011;3267;48.794;9.928;2023-03-01T18:03:04;14.05;;;10.93;;
6467;SDS011;3267;48.794;9.928;2023-03-01T18:05:31;14.90;;;10.50;;
6467;SDS011;3267;48.794;9.928;2023-03-01T18:07:58;15.40;;;9.93;;
6467;SDS011;3267;48.794;9.928;2023-03-01T18:10:23;14.82;;;10.77;;
6467;SDS011;3267;48.794;9.928;2023-03-01T18:12:50;13.82;;;10.45;;
6467;SDS011;3267;48.794;9.928;2023-03-01T18:15:16;14.82;;;9.65;;
6467;SDS011;3267;48.794;9.928;2023-03-01T18:17:41;16.50;;;10.68;;
6467;SDS011;3267;48.794;9.928;2023-03-01T18:20:07;13.45;;;10.40;;
6467;SDS011;3267;48.794;9.928;2023-03-01T18:22:34;15.93;;;11.73;;
6467;SDS011;3267;48.794;9.928;2023-03-01T18:24:59;13.15;;;11.07;;
6467;SDS011;3267;48.794;9.928;2023-03-01T18:27:25;14.13;;;11.27;;
6467;SDS011;3267;48.794;9.928;2023-03-01T18:29:50;16.83;;;12.13;;
6467;SDS011;3267;48.794;9.928;2023-03-01T18:32:17;26.60;;;10.75;;
6467;SDS011;3267;48.794;9.928;2023-03-01T18:34:42;13.50;;;11.13;;
6467;SDS011;3267;48.794;9.928;2023-03-01T18:37:09;18.30;;;12.18;;
6467;SDS011;3267;48.794;9.928;2023-03-01T18:39:35;34.47;;;27.30;;
6467;SDS011;3267;48.794;9.928;2023-03-01T18:42:01;18.27;;;11.68;;
6467;SDS011;3267;48.794;9.928;2023-03-01T18:44:27;16.92;;;12.07;;
6467;SDS011;3267;48.794;9.928;2023-03-01T18:46:54;14.88;;;11.65;;
6467;SDS011;3267;48.794;9.928;2023-03-01T18:49:22;13.88;;;11.52;;
6467;SDS011;3267;48.794;9.928;2023-03-01T18:51:48;18.80;;;13.02;;
6467;SDS011;3267;48.794;9.928;2023-03-01T18:54:14;17.55;;;12.88;;
6467;SDS011;3267;48.794;9.928;2023-03-01T18:56:40;19.73;;;12.70;;
6467;SDS011;3267;48.794;9.928;2023-03-01T18:59:06;18.70;;;12.93;;
6467;SDS011;3267;48.794;9.928;2023-03-01T19:01:32;14.05;;;11.65;;
6467;SDS011;3267;48.794;9.928;2023-03-01T19:03:58;19.98;;;13.52;;
6467;SDS011;3267;48.794;9.928;2023-03-01T19:06:28;17.77;;;12.88;;
6467;SDS011;3267;48.794;9.928;2023-03-01T19:08:55;17.08;;;12.77;;
6467;SDS011;3267;48.794;9.928;2023-03-01T19:11:21;16.20;;;12.70;;
6467;SDS011;3267;48.794;9.928;2023-03-01T19:13:51;15.82;;;11.95;;
6467;SDS011;3267;48.794;9.928;2023-03-01T19:16:19;15.70;;;12.43;;
6467;SDS011;3267;48.794;9.928;2023-03-01T19:18:46;17.35;;;12.43;;
6467;SDS011;3267;48.794;9.928;2023-03-01T19:21:14;17.88;;;13.45;;
6467;SDS011;3267;48.794;9.928;2023-03-01T19:23:41;15.48;;;11.90;;
6467;SDS011;3267;48.794;9.928;2023-03-01T19:26:08;17.20;;;12.95;;
6467;SDS011;3267;48.794;9.928;2023-03-01T19:28:35;13.77;;;11.43;;
6467;SDS011;3267;48.794;9.928;2023-03-01T19:31:03;15.05;;;12.50;;
6467;SDS011;3267;48.794;9.928;2023-03-01T19:33:33;19.55;;;13.25;;
6467;SDS011;3267;48.794;9.928;2023-03-01T19:36:00;18.73;;;11.98;;
6467;SDS011;3267;48.794;9.928;2023-03-01T19:38:26;18.30;;;12.77;;
6467;SDS011;3267;48.794;9.928;2023-03-01T19:40:53;17.55;;;12.48;;
6467;SDS011;3267;48.794;9.928;2023-03-01T19:43:19;16.83;;;13.30;;
6467;SDS011;3267;48.794;9.928;2023-03-01T19:45:52;16.65;;;12.60;;
6467;SDS011;3267;48.794;9.928;2023-03-01T19:48:18;18.88;;;14.15;;
6467;SDS011;3267;48.794;9.928;2023-03-01T19:50:44;18.52;;;13.63;;
6467;SDS011;3267;48.794;9.928;2023-03-01T19:53:10;19.02;;;13.35;;
6467;SDS011;3267;48.794;9.928;2023-03-01T19:55:36;16.77;;;12.40;;
6467;SDS011;3267;48.794;9.928;2023-03-01T19:58:03;18.83;;;13.52;;
6467;SDS011;3267;48.794;9.928;2023-03-01T20:00:30;15.55;;;12.32;;
6467;SDS011;3267;48.794;9.928;2023-03-01T20:02:56;21.30;;;13.98;;
6467;SDS011;3267;48.794;9.928;2023-03-01T20:05:22;19.08;;;15.95;;
6467;SDS011;3267;48.794;9.928;2023-03-01T20:07:47;18.80;;;13.73;;
6467;SDS011;3267;48.794;9.928;2023-03-01T20:10:15;36.55;;;23.70;;
6467;SDS011;3267;48.794;9.928;2023-03-01T20:12:41;32.95;;;20.63;;
6467;SDS011;3267;48.794;9.928;2023-03-01T20:15:07;22.88;;;15.10;;
6467;SDS011;3267;48.794;9.928;2023-03-01T20:17:33;17.65;;;13.25;;
6467;SDS011;3267;48.794;9.928;2023-03-01T20:19:59;17.80;;;13.38;;
6467;SDS011;3267;48.794;9.928;2023-03-01T20:22:25;17.90;;;13.85;;
6467;SDS011;3267;48.794;9.928;2023-03-01T20:24:51;15.57;;;12.75;;
6467;SDS011;3267;48.794;9.928;2023-03-01T20:27:17;18.17;;;13.48;;
6467;SDS011;3267;48.794;9.928;2023-03-01T20:29:43;16.95;;;12.57;;
6467;SDS011;3267;48.794;9.928;2023-03-01T20:32:10;19.23;;;13.23;;
6467;SDS011;3267;48.794;9.928;2023-03-01T20:34:36;17.65;;;12.75;;
6467;SDS011;3267;48.794;9.928;2023-03-01T20:37:02;18.13;;;13.43;;
6467;SDS011;3267;48.794;9.928;2023-03-01T20:39:27;18.25;;;13.05;;
6467;SDS011;3267;48.794;9.928;2023-03-01T20:41:53;18.77;;;13.10;;
6467;SDS011;3267;48.794;9.928;2023-03-01T20:44:19;28.23;;;19.83;;
6467;SDS011;3267;48.794;9.928;2023-03-01T20:46:45;25.63;;;17.58;;
6467;SDS011;3267;48.794;9.928;2023-03-01T20:49:10;21.50;;;15.20;;
6467;SDS011;3267;48.794;9.928;2023-03-01T20:51:36;18.35;;;13.82;;
6467;SDS011;3267;48.794;9.928;2023-03-01T20:54:02;19.98;;;14.07;;
6467;SDS011;3267;48.794;9.928;2023-03-01T20:56:29;21.00;;;14.40;;
6467;SDS011;3267;48.794;9.928;2023-03-01T20:58:55;19.20;;;13.88;;
6467;SDS011;3267;48.794;9.928;2023-03-01T21:01:23;21.95;;;14.82;;
6467;SDS011;3267;48.794;9.928;2023-03-01T21:03:49;17.45;;;13.32;;
6467;SDS011;3267;48.794;9.928;2023-03-01T21:06:16;20.02;;;13.88;;
6467;SDS011;3267;48.794;9.928;2023-03-01T21:08:41;18.65;;;13.95;;
6467;SDS011;3267;48.794;9.928;2023-03-01T21:11:07;18.73;;;14.10;;
6467;SDS011;3267;48.794;9.928;2023-03-01T21:13:33;20.17;;;13.98;;
6467;SDS011;3267;48.794;9.928;2023-03-01T21:16:00;19.70;;;13.93;;
6467;SDS011;3267;48.794;9.928;2023-03-01T21:18:29;20.70;;;15.13;;
6467;SDS011;3267;48.794;9.928;2023-03-01T21:20:59;26.63;;;16.60;;
6467;SDS011;3267;48.794;9.928;2023-03-01T21:23:30;52.47;;;25.02;;
6467;SDS011;3267;48.794;9.928;2023-03-01T21:26:00;39.28;;;20.48;;
6467;SDS011;3267;48.794;9.928;2023-03-01T21:28:36;35.17;;;19.73;;
6467;SDS011;3267;48.794;9.928;2023-03-01T21:31:03;32.53;;;20.38;;
6467;SDS011;3267;48.794;9.928;2023-03-01T21:33:29;20.45;;;14.10;;
6467;SDS011;3267;48.794;9.928;2023-03-01T21:35:59;16.70;;;14.10;;